Time;durP1;ratioP1;P1;durP2;ratioP2;P2;SDS_P1;SDS_P2;PMS_P1;PMS_P2;Temp;Humidity;BMP_temperature;BMP_pressure;BME280_temperature;BME280_humidity;BME280_pressure;Samples;Min_cycle;Max_cycle;Signal;HPM_P1;HPM_P2
2022/12/04 00:01:59;;;;;;;126.45;44.72;;;0.50;99.90;;;;;;5091843;28;20035;-42
2022/12/04 00:04:25;;;;;;;138.98;47.72;;;0.60;99.90;;;;;;5091401;28;20020;-42
2022/12/04 00:06:53;;;;;;;113.40;40.08;;;0.50;99.90;;;;;;5091525;28;20028;-43
2022/12/04 00:09:18;;;;;;;128.63;46.38;;;0.50;99.90;;;;;;5091600;28;20024;-43
2022/12/04 00:11:44;;;;;;;127.53;44.38;;;0.50;99.90;;;;;;5091783;28;20103;-43
2022/12/04 00:14:10;;;;;;;130.60;42.88;;;0.50;99.90;;;;;;5091850;28;20016;-44
2022/12/04 00:16:35;;;;;;;132.05;43.40;;;0.60;99.90;;;;;;5091713;28;20103;-43
2022/12/04 00:19:01;;;;;;;138.38;45.63;;;0.60;99.90;;;;;;5087139;28;20038;-43
2022/12/04 00:21:26;;;;;;;124.85;42.38;;;0.50;99.90;;;;;;5090981;28;20024;-42
2022/12/04 00:23:52;;;;;;;125.03;44.85;;;0.50;99.90;;;;;;5091596;28;20124;-43
2022/12/04 00:26:20;;;;;;;131.18;42.85;;;0.40;99.90;;;;;;5091300;28;20028;-43
2022/12/04 00:28:47;;;;;;;124.82;43.97;;;0.50;99.90;;;;;;5091355;28;20385;-44
2022/12/04 00:31:16;;;;;;;131.70;46.60;;;0.50;99.90;;;;;;5090998;28;20111;-43
2022/12/04 00:33:41;;;;;;;119.97;42.85;;;0.50;99.90;;;;;;5091320;28;20413;-43
2022/12/04 00:36:10;;;;;;;139.32;46.50;;;0.50;99.90;;;;;;5091756;28;20034;-42
2022/12/04 00:38:37;;;;;;;129.32;43.72;;;0.50;99.90;;;;;;5091359;28;20024;-42
2022/12/04 00:41:03;;;;;;;136.13;44.90;;;0.50;99.90;;;;;;5090515;28;20091;-45
2022/12/04 00:43:29;;;;;;;139.23;46.85;;;0.50;99.90;;;;;;5090841;28;20477;-42
2022/12/04 00:45:55;;;;;;;127.13;45.40;;;0.50;99.90;;;;;;5090984;28;20028;-43
2022/12/04 00:48:22;;;;;;;127.32;44.95;;;0.50;99.90;;;;;;5090946;28;20427;-43
2022/12/04 00:50:48;;;;;;;122.38;45.40;;;0.50;99.90;;;;;;5090524;28;20103;-42
2022/12/04 00:53:14;;;;;;;130.65;45.63;;;0.50;99.90;;;;;;5090420;28;20462;-43
2022/12/04 00:55:41;;;;;;;130.18;47.00;;;0.60;99.90;;;;;;5091101;28;20055;-43
2022/12/04 00:58:07;;;;;;;138.18;46.05;;;0.50;99.90;;;;;;5091081;28;20024;-42
2022/12/04 01:00:40;;;;;;;128.60;44.35;;;0.60;99.90;;;;;;5090733;28;20024;-42
2022/12/04 01:03:06;;;;;;;124.32;46.05;;;0.50;99.90;;;;;;5090897;28;20052;-43
2022/12/04 01:05:36;;;;;;;120.07;44.67;;;0.60;99.90;;;;;;5090891;28;20027;-42
2022/12/04 01:08:02;;;;;;;140.07;46.15;;;0.60;99.90;;;;;;5090852;28;20064;-43
2022/12/04 01:10:28;;;;;;;123.50;44.92;;;0.60;99.90;;;;;;5090472;28;20024;-42
2022/12/04 01:12:54;;;;;;;127.20;46.47;;;0.50;99.90;;;;;;5090650;28;20024;-43
2022/12/04 01:15:19;;;;;;;118.88;44.95;;;0.50;99.90;;;;;;5089433;28;20400;-44
2022/12/04 01:17:45;;;;;;;125.80;45.42;;;0.60;99.90;;;;;;5090658;28;20024;-44
2022/12/04 01:20:12;;;;;;;117.40;43.58;;;0.60;99.90;;;;;;5088456;28;20031;-43
2022/12/04 01:22:38;;;;;;;124.45;46.72;;;0.60;99.90;;;;;;5090325;28;20078;-45
2022/12/04 01:25:04;;;;;;;123.60;44.58;;;0.60;99.90;;;;;;5090604;28;20032;-43
2022/12/04 01:27:29;;;;;;;110.70;44.30;;;0.50;99.90;;;;;;5090694;28;20023;-43
2022/12/04 01:29:55;;;;;;;144.00;47.53;;;0.50;99.90;;;;;;5090170;28;20012;-44
2022/12/04 01:32:21;;;;;;;119.88;45.08;;;0.50;99.90;;;;;;5090496;28;20043;-44
2022/12/04 01:34:46;;;;;;;128.90;46.53;;;0.50;99.90;;;;;;5088990;28;20020;-42
2022/12/04 01:37:12;;;;;;;124.38;45.22;;;0.50;99.90;;;;;;5090084;28;20077;-43
2022/12/04 01:39:38;;;;;;;128.80;48.22;;;0.50;99.90;;;;;;5089814;28;20050;-41
2022/12/04 01:42:04;;;;;;;116.03;44.60;;;0.60;99.90;;;;;;5090220;28;20071;-40
2022/12/04 01:44:31;;;;;;;115.05;43.45;;;0.60;99.90;;;;;;5090431;28;20028;-41
2022/12/04 01:46:59;;;;;;;122.07;45.97;;;0.60;99.90;;;;;;5089046;28;20035;-41
2022/12/04 01:49:36;;;;;;;125.40;47.30;;;0.60;99.90;;;;;;5089021;28;20039;-41
2022/12/04 01:52:21;;;;;;;117.88;45.38;;;0.60;99.90;;;;;;5089707;28;20496;-40
2022/12/04 01:54:54;;;;;;;108.75;43.70;;;0.60;99.90;;;;;;5088630;28;20051;-41
2022/12/04 01:57:23;;;;;;;124.68;44.67;;;0.60;99.90;;;;;;5089790;28;20388;-41
2022/12/04 01:59:59;;;;;;;113.30;43.30;;;0.60;99.90;;;;;;5089425;28;20031;-41
2022/12/04 02:02:39;;;;;;;122.72;46.55;;;0.60;99.90;;;;;;5088059;28;20020;-41
2022/12/04 02:05:08;;;;;;;111.47;45.65;;;0.70;99.90;;;;;;5089245;28;20021;-41
2022/12/04 02:07:34;;;;;;;116.07;47.38;;;0.70;99.90;;;;;;5089492;28;20073;-41
2022/12/04 02:10:05;;;;;;;112.65;45.72;;;0.70;99.90;;;;;;5088978;28;20023;-42
2022/12/04 02:12:52;;;;;;;114.93;45.55;;;0.70;99.90;;;;;;5089367;28;20481;-42
2022/12/04 02:15:20;;;;;;;113.25;45.60;;;0.70;99.90;;;;;;5088003;28;20400;-41
2022/12/04 02:18:09;;;;;;;118.70;46.50;;;0.70;99.90;;;;;;5087929;28;20057;-42
2022/12/04 02:20:43;;;;;;;127.57;46.05;;;0.70;99.90;;;;;;5076479;28;20036;-42
2022/12/04 02:23:36;;;;;;;121.10;46.03;;;0.70;99.90;;;;;;5089120;28;20024;-42
2022/12/04 02:26:40;;;;;;;115.13;43.42;;;0.70;99.90;;;;;;5089430;28;20012;-43
2022/12/04 02:29:26;;;;;;;109.32;45.38;;;0.70;99.90;;;;;;5088850;28;20369;-42
2022/12/04 02:32:01;;;;;;;114.72;46.08;;;0.70;99.90;;;;;;5089156;28;20020;-42
2022/12/04 02:34:46;;;;;;;121.45;46.63;;;0.70;99.90;;;;;;5089001;28;20427;-43
2022/12/04 02:37:25;;;;;;;127.75;44.70;;;0.70;99.90;;;;;;5087778;28;20312;-42
2022/12/04 02:40:03;;;;;;;115.55;48.65;;;0.70;99.90;;;;;;5088496;28;20174;-41
2022/12/04 02:42:46;;;;;;;106.70;43.30;;;0.70;99.90;;;;;;5087809;28;20026;-42
2022/12/04 02:45:16;;;;;;;122.07;46.55;;;0.70;99.90;;;;;;5089285;28;20020;-42
2022/12/04 02:47:45;;;;;;;111.32;44.75;;;0.70;99.90;;;;;;5084831;28;20122;-42
2022/12/04 02:50:20;;;;;;;111.85;46.35;;;0.80;99.90;;;;;;5087637;28;20489;-42
2022/12/04 02:52:54;;;;;;;116.85;48.15;;;0.80;99.90;;;;;;5089162;28;20020;-43
2022/12/04 02:55:25;;;;;;;117.80;47.47;;;0.80;99.90;;;;;;5089343;28;20028;-47
2022/12/04 02:57:56;;;;;;;121.45;46.78;;;0.80;99.90;;;;;;5089116;28;20540;-42
2022/12/04 03:00:22;;;;;;;118.20;48.15;;;0.80;99.90;;;;;;5088437;28;20462;-42
2022/12/04 03:03:20;;;;;;;110.13;44.38;;;0.80;99.90;;;;;;5087413;28;20105;-43
2022/12/04 03:06:01;;;;;;;120.00;47.50;;;0.80;99.90;;;;;;5088912;28;20070;-42
2022/12/04 03:08:37;;;;;;;110.60;44.50;;;0.80;99.90;;;;;;5089087;28;20384;-42
2022/12/04 03:11:03;;;;;;;110.40;44.28;;;0.80;99.90;;;;;;5088612;28;20017;-42
2022/12/04 03:13:40;;;;;;;118.35;45.85;;;0.80;99.90;;;;;;5089159;28;20023;-43
2022/12/04 03:16:08;;;;;;;107.95;44.58;;;0.80;99.90;;;;;;5087570;28;20481;-42
2022/12/04 03:18:42;;;;;;;105.80;44.13;;;0.80;99.90;;;;;;5092722;28;20024;-42
2022/12/04 03:21:13;;;;;;;107.03;45.40;;;0.80;99.90;;;;;;5092584;28;20497;-43
2022/12/04 03:23:55;;;;;;;110.32;44.83;;;0.80;99.90;;;;;;5091372;28;20107;-42
2022/12/04 03:26:45;;;;;;;119.25;46.78;;;0.80;99.90;;;;;;5092842;28;20058;-42
2022/12/04 03:29:18;;;;;;;111.18;45.45;;;0.90;99.90;;;;;;5089265;28;20355;-42
2022/12/04 03:32:14;;;;;;;111.05;45.38;;;0.90;99.90;;;;;;5092965;28;20032;-43
2022/12/04 03:34:56;;;;;;;104.78;43.58;;;0.90;99.90;;;;;;5092523;28;20105;-42
2022/12/04 03:37:29;;;;;;;118.65;47.55;;;0.90;99.90;;;;;;5092636;28;20046;-42
2022/12/04 03:39:55;;;;;;;109.88;46.38;;;0.90;99.90;;;;;;5090926;28;20057;-42
2022/12/04 03:42:34;;;;;;;105.72;43.28;;;0.90;99.90;;;;;;5090678;28;20036;-42
2022/12/04 03:45:06;;;;;;;111.30;45.85;;;0.90;99.90;;;;;;5092185;28;20115;-42
2022/12/04 03:47:39;;;;;;;117.88;46.72;;;0.80;99.90;;;;;;5080032;28;20012;-42
2022/12/04 03:50:15;;;;;;;123.00;48.25;;;0.80;99.90;;;;;;5084687;28;20020;-43
2022/12/04 03:52:45;;;;;;;117.05;47.88;;;0.80;99.90;;;;;;5081856;28;20020;-42
2022/12/04 03:55:25;;;;;;;116.88;46.53;;;0.90;99.90;;;;;;5080598;28;20065;-42
2022/12/04 03:57:55;;;;;;;112.00;46.50;;;0.90;99.90;;;;;;5080681;28;20056;-41
2022/12/04 04:00:22;;;;;;;114.10;47.10;;;0.90;99.90;;;;;;5081634;28;20068;-42
2022/12/04 04:03:02;;;;;;;121.22;47.15;;;0.90;99.90;;;;;;5080972;28;20042;-41
2022/12/04 04:05:28;;;;;;;110.22;46.08;;;0.90;99.90;;;;;;5082473;28;20024;-42
2022/12/04 04:10:49;;;;;;;111.30;47.10;;;0.90;99.90;;;;;;5081852;28;20063;-43
2022/12/04 04:24:31;;;;;;;105.38;45.10;;;0.90;99.90;;;;;;5082483;28;20027;-41
2022/12/04 04:26:58;;;;;;;117.68;47.38;;;1.00;99.90;;;;;;5078211;28;20024;-42
2022/12/04 04:29:24;;;;;;;106.38;43.33;;;1.00;99.90;;;;;;5080733;28;20024;-41
2022/12/04 04:31:55;;;;;;;98.70;42.78;;;1.00;99.90;;;;;;5080422;28;20327;-41
2022/12/04 04:34:32;;;;;;;106.57;47.17;;;1.00;99.90;;;;;;5077073;28;20028;-42
2022/12/04 04:37:13;;;;;;;100.80;45.88;;;1.00;99.90;;;;;;5081140;28;20450;-41
2022/12/04 04:39:45;;;;;;;100.95;43.38;;;1.00;99.90;;;;;;5080883;28;20028;-41
2022/12/04 04:42:16;;;;;;;102.68;44.95;;;1.00;99.90;;;;;;5079830;28;20020;-41
2022/12/04 04:45:13;;;;;;;99.65;42.50;;;1.00;99.90;;;;;;5079081;28;20044;-41
2022/12/04 04:48:07;;;;;;;103.57;43.60;;;1.00;99.90;;;;;;5095745;28;20032;-41
2022/12/04 04:50:34;;;;;;;104.18;46.15;;;1.00;99.90;;;;;;5080808;28;20089;-41
2022/12/04 04:53:11;;;;;;;107.10;43.20;;;1.00;99.90;;;;;;5073755;28;20020;-41
2022/12/04 04:55:40;;;;;;;105.22;46.35;;;1.00;99.90;;;;;;5071199;28;20025;-41
2022/12/04 04:58:13;;;;;;;114.43;46.78;;;1.00;99.90;;;;;;5070925;28;20039;-42
2022/12/04 05:00:40;;;;;;;110.65;45.83;;;1.00;99.90;;;;;;5070648;28;20021;-41
2022/12/04 05:03:06;;;;;;;107.82;44.70;;;1.00;99.90;;;;;;5070750;28;20051;-42
2022/12/04 05:05:31;;;;;;;105.15;45.40;;;1.00;99.90;;;;;;5070568;28;20390;-41
2022/12/04 05:07:58;;;;;;;109.50;45.25;;;0.90;99.90;;;;;;5069322;28;20059;-41
2022/12/04 05:10:24;;;;;;;109.72;45.67;;;0.90;99.90;;;;;;5068878;28;20012;-41
2022/12/04 05:12:50;;;;;;;112.43;47.08;;;0.90;99.90;;;;;;5070496;28;20027;-41
2022/12/04 05:15:17;;;;;;;105.72;43.22;;;0.90;99.90;;;;;;5070376;28;20021;-41
2022/12/04 05:17:42;;;;;;;105.18;45.40;;;0.90;99.90;;;;;;5073551;28;20524;-42
2022/12/04 05:20:09;;;;;;;109.07;46.05;;;0.90;99.90;;;;;;5089693;28;20107;-41
2022/12/04 05:22:36;;;;;;;106.20;46.38;;;1.00;99.90;;;;;;5090640;28;20038;-42
2022/12/04 05:25:03;;;;;;;113.55;48.28;;;1.00;99.90;;;;;;5090607;28;20032;-41
2022/12/04 05:27:29;;;;;;;112.38;46.65;;;1.00;99.90;;;;;;5089198;28;20367;-41
2022/12/04 05:29:57;;;;;;;110.05;47.13;;;1.00;99.90;;;;;;5086231;28;20472;-42
2022/12/04 05:32:25;;;;;;;113.07;45.47;;;0.90;99.90;;;;;;5088815;28;20484;-41
2022/12/04 05:34:52;;;;;;;107.35;45.53;;;1.00;99.90;;;;;;5090609;28;20560;-41
2022/12/04 05:37:19;;;;;;;112.90;48.03;;;1.00;99.90;;;;;;5090003;28;20036;-42
2022/12/04 05:39:45;;;;;;;110.70;46.80;;;1.00;99.90;;;;;;5089583;28;20024;-42
2022/12/04 05:42:11;;;;;;;113.00;48.67;;;0.90;99.90;;;;;;5088760;28;20541;-42
2022/12/04 05:44:37;;;;;;;121.90;46.47;;;1.00;99.90;;;;;;5088750;28;20039;-41
2022/12/04 05:47:03;;;;;;;105.90;46.25;;;0.90;99.90;;;;;;5089020;28;20396;-41
2022/12/04 05:49:30;;;;;;;107.28;44.33;;;0.90;99.90;;;;;;5088970;28;20292;-41
2022/12/04 05:51:56;;;;;;;109.43;44.67;;;1.00;99.90;;;;;;5088432;28;20479;-43
2022/12/04 05:54:22;;;;;;;110.22;46.88;;;0.90;99.90;;;;;;5089501;28;20035;-41
2022/12/04 05:56:48;;;;;;;112.35;47.28;;;0.90;99.90;;;;;;5090019;28;20361;-41
2022/12/04 05:59:14;;;;;;;110.07;47.47;;;1.00;99.90;;;;;;5089160;28;20073;-41
2022/12/04 06:01:40;;;;;;;109.18;45.88;;;1.00;99.90;;;;;;5089757;28;20484;-41
2022/12/04 06:04:06;;;;;;;102.57;44.65;;;1.00;99.90;;;;;;5089448;28;20035;-42
2022/12/04 06:06:32;;;;;;;106.55;47.55;;;1.00;99.90;;;;;;5088140;28;20504;-40
2022/12/04 06:08:59;;;;;;;111.00;44.63;;;1.10;99.90;;;;;;5071828;28;20035;-42
2022/12/04 06:11:30;;;;;;;117.25;47.92;;;1.00;99.90;;;;;;5067502;28;20024;-41
2022/12/04 06:13:58;;;;;;;111.63;45.40;;;1.00;99.90;;;;;;5069063;28;20028;-42
2022/12/04 06:16:26;;;;;;;118.30;47.53;;;1.00;99.90;;;;;;5068990;28;20016;-43
2022/12/04 06:18:58;;;;;;;123.03;49.25;;;1.00;99.90;;;;;;5082058;28;20051;-42
2022/12/04 06:21:26;;;;;;;109.82;46.15;;;0.90;99.90;;;;;;5087711;28;20127;-41
2022/12/04 06:23:52;;;;;;;110.22;43.95;;;1.00;99.90;;;;;;5087994;28;20043;-42
2022/12/04 06:26:18;;;;;;;114.03;46.72;;;0.90;99.90;;;;;;5089226;28;20024;-45
2022/12/04 06:28:44;;;;;;;111.60;46.65;;;0.90;99.90;;;;;;5089229;28;20020;-43
2022/12/04 06:31:12;;;;;;;127.47;49.58;;;0.90;99.90;;;;;;5087349;28;20223;-43
2022/12/04 06:33:38;;;;;;;117.47;47.70;;;0.90;99.90;;;;;;5089243;28;20012;-42
2022/12/04 06:36:12;;;;;;;113.97;48.15;;;1.00;99.90;;;;;;5089125;28;20032;-43
2022/12/04 06:38:38;;;;;;;114.13;46.42;;;1.00;99.90;;;;;;5088251;28;20051;-43
2022/12/04 06:41:06;;;;;;;121.93;50.88;;;1.00;99.90;;;;;;5088625;28;20430;-43
2022/12/04 06:43:33;;;;;;;123.85;48.60;;;1.00;99.90;;;;;;5088790;28;20206;-46
2022/12/04 06:46:08;;;;;;;111.20;48.28;;;1.00;99.90;;;;;;5087423;28;20049;-44
2022/12/04 06:48:33;;;;;;;119.13;50.50;;;1.00;99.90;;;;;;5088739;28;20424;-43
2022/12/04 06:51:05;;;;;;;122.45;50.88;;;1.00;99.90;;;;;;5088191;28;20031;-43
2022/12/04 06:53:31;;;;;;;128.35;51.10;;;1.00;99.90;;;;;;5088821;28;20047;-42
2022/12/04 06:56:04;;;;;;;114.35;47.38;;;1.00;99.90;;;;;;5088882;28;20051;-42
2022/12/04 06:58:31;;;;;;;120.43;46.33;;;1.00;99.90;;;;;;5087473;28;20035;-45
2022/12/04 07:00:56;;;;;;;117.45;46.55;;;1.00;99.90;;;;;;5088175;28;20046;-44
2022/12/04 07:03:23;;;;;;;118.85;48.50;;;1.00;99.90;;;;;;5087241;28;20290;-43
2022/12/04 07:05:49;;;;;;;130.68;51.92;;;1.00;99.90;;;;;;5088689;28;20020;-43
2022/12/04 07:08:15;;;;;;;125.25;51.35;;;1.00;99.90;;;;;;5082828;28;20078;-42
2022/12/04 07:10:41;;;;;;;132.23;52.90;;;1.00;99.90;;;;;;5076737;28;20048;-42
2022/12/04 07:13:07;;;;;;;122.30;49.40;;;1.00;99.90;;;;;;5076192;28;20645;-43
2022/12/04 07:15:35;;;;;;;114.88;48.35;;;1.00;99.90;;;;;;5078198;28;20028;-43
2022/12/04 07:18:01;;;;;;;134.73;52.20;;;1.00;99.90;;;;;;5079306;28;20125;-43
2022/12/04 07:20:27;;;;;;;132.85;51.97;;;1.00;99.90;;;;;;5076415;28;20069;-43
2022/12/04 07:22:53;;;;;;;118.05;47.85;;;1.00;99.90;;;;;;5084326;28;20020;-42
2022/12/04 07:25:19;;;;;;;131.82;54.10;;;1.00;99.90;;;;;;5077794;28;20029;-42
2022/12/04 07:27:45;;;;;;;131.65;49.90;;;1.00;99.90;;;;;;5085787;28;20030;-42
2022/12/04 07:30:11;;;;;;;134.98;53.80;;;1.00;99.90;;;;;;5085580;28;20020;-42
2022/12/04 07:32:37;;;;;;;123.03;51.53;;;1.00;99.90;;;;;;5078796;28;20147;-44
2022/12/04 07:35:04;;;;;;;133.77;53.70;;;1.00;99.90;;;;;;5077651;28;20111;-41
2022/12/04 07:37:30;;;;;;;130.05;50.90;;;1.00;99.90;;;;;;5077875;28;20030;-44
2022/12/04 07:39:56;;;;;;;122.80;49.65;;;1.00;99.90;;;;;;5077368;28;20025;-43
2022/12/04 07:42:22;;;;;;;124.75;51.13;;;1.00;99.90;;;;;;5079348;28;20070;-42
2022/12/04 07:44:47;;;;;;;132.05;51.78;;;1.00;99.90;;;;;;5076966;28;20642;-45
2022/12/04 07:47:13;;;;;;;132.48;53.22;;;1.00;99.90;;;;;;5088477;28;20057;-43
2022/12/04 07:49:39;;;;;;;123.68;51.25;;;1.00;99.90;;;;;;5087854;28;20067;-42
2022/12/04 07:52:05;;;;;;;132.05;51.92;;;1.00;99.90;;;;;;5088756;28;20077;-42
2022/12/04 07:54:31;;;;;;;131.98;52.95;;;1.00;99.90;;;;;;5088132;28;20024;-42
2022/12/04 07:56:57;;;;;;;150.75;55.95;;;1.00;99.90;;;;;;5087101;28;20039;-41
2022/12/04 07:59:22;;;;;;;132.55;51.70;;;1.00;99.90;;;;;;5088200;28;20016;-43
2022/12/04 08:01:48;;;;;;;142.52;53.60;;;1.00;99.90;;;;;;5069424;28;20056;-44
2022/12/04 08:04:14;;;;;;;126.55;49.00;;;1.10;99.90;;;;;;5069408;28;20077;-42
2022/12/04 08:06:40;;;;;;;126.20;55.03;;;1.10;99.90;;;;;;5071440;28;20020;-43
2022/12/04 08:09:09;;;;;;;116.68;48.25;;;1.00;99.90;;;;;;5084148;28;20081;-43
2022/12/04 08:11:35;;;;;;;131.02;52.00;;;1.00;99.90;;;;;;5083293;28;20029;-43
2022/12/04 08:14:03;;;;;;;128.55;54.83;;;0.90;99.90;;;;;;5087832;28;20031;-43
2022/12/04 08:16:31;;;;;;;133.68;51.75;;;1.00;99.90;;;;;;5081393;28;20032;-43
2022/12/04 08:18:57;;;;;;;135.00;54.30;;;0.90;99.90;;;;;;5076534;28;20053;-43
2022/12/04 08:21:26;;;;;;;133.35;53.47;;;0.90;99.90;;;;;;5089293;28;20110;-42
2022/12/04 08:23:54;;;;;;;138.38;50.70;;;0.90;99.90;;;;;;5091613;28;20057;-43
2022/12/04 08:26:21;;;;;;;135.45;53.22;;;1.00;99.90;;;;;;5089700;28;20028;-43
2022/12/04 08:28:47;;;;;;;139.90;52.65;;;1.00;99.90;;;;;;5088262;28;20028;-44
2022/12/04 08:31:16;;;;;;;136.07;52.15;;;1.00;99.90;;;;;;5089469;28;20431;-43
2022/12/04 08:33:43;;;;;;;141.43;52.90;;;1.00;99.90;;;;;;5083946;28;20560;-42
2022/12/04 08:36:11;;;;;;;130.18;51.80;;;1.00;99.90;;;;;;5089788;28;20465;-42
2022/12/04 08:38:37;;;;;;;130.68;51.50;;;1.00;99.90;;;;;;5089896;28;20246;-43
2022/12/04 08:41:07;;;;;;;132.55;52.47;;;1.00;99.90;;;;;;5090794;28;20499;-42
2022/12/04 08:43:33;;;;;;;130.70;50.95;;;1.00;99.90;;;;;;5090615;28;20041;-43
2022/12/04 08:46:02;;;;;;;132.43;49.85;;;1.00;99.90;;;;;;5089757;28;20123;-43
2022/12/04 08:48:28;;;;;;;126.00;51.38;;;1.00;99.90;;;;;;5085591;28;20022;-49
2022/12/04 08:50:55;;;;;;;129.18;49.90;;;1.00;99.90;;;;;;5088810;28;20020;-43
2022/12/04 08:53:24;;;;;;;124.93;48.03;;;1.10;99.90;;;;;;5091065;28;20462;-42
2022/12/04 08:55:51;;;;;;;137.38;52.03;;;1.10;99.90;;;;;;5090091;28;20024;-43
2022/12/04 08:58:18;;;;;;;125.60;51.05;;;1.10;99.90;;;;;;5090784;28;20024;-43
2022/12/04 09:00:47;;;;;;;135.20;51.15;;;1.00;99.90;;;;;;5089279;28;20034;-43
2022/12/04 09:03:17;;;;;;;120.35;49.63;;;1.10;99.90;;;;;;5090632;28;20024;-43
2022/12/04 09:05:46;;;;;;;139.70;51.05;;;1.10;99.90;;;;;;5090245;28;20312;-43
2022/12/04 09:08:13;;;;;;;133.50;51.78;;;1.20;99.90;;;;;;5090589;28;20048;-43
2022/12/04 09:10:39;;;;;;;130.75;50.88;;;1.20;99.90;;;;;;5090217;28;20032;-43
2022/12/04 09:13:07;;;;;;;127.30;52.50;;;1.20;99.90;;;;;;5090900;28;20016;-43
2022/12/04 09:15:36;;;;;;;134.93;49.55;;;1.10;99.90;;;;;;5090319;28;20066;-43
2022/12/04 09:18:02;;;;;;;138.35;51.72;;;1.10;99.90;;;;;;5090081;28;20421;-42
2022/12/04 09:20:30;;;;;;;121.95;49.03;;;1.10;99.90;;;;;;5078862;28;20028;-43
2022/12/04 09:22:56;;;;;;;128.02;51.50;;;1.20;99.90;;;;;;5073106;28;20024;-43
2022/12/04 09:25:22;;;;;;;118.05;48.95;;;1.10;99.90;;;;;;5069991;28;20032;-43
2022/12/04 09:27:48;;;;;;;132.63;51.35;;;1.20;99.90;;;;;;5069199;28;20020;-44
2022/12/04 09:30:14;;;;;;;129.40;51.00;;;1.20;99.90;;;;;;5087959;28;20031;-43
2022/12/04 09:32:40;;;;;;;143.13;55.83;;;1.20;99.90;;;;;;5090275;28;20025;-43
2022/12/04 09:35:06;;;;;;;127.85;50.90;;;1.10;99.90;;;;;;5089969;28;20020;-43
2022/12/04 09:37:32;;;;;;;131.25;49.55;;;1.20;99.90;;;;;;5090300;28;20059;-42
2022/12/04 09:39:58;;;;;;;118.60;48.90;;;1.20;99.90;;;;;;5089819;28;20078;-42
2022/12/04 09:42:44;;;;;;;114.40;46.70;;;1.20;99.90;;;;;;5090184;28;20028;-42
2022/12/04 09:45:10;;;;;;;129.05;52.15;;;1.20;99.90;;;;;;5088805;28;20024;-43
2022/12/04 09:47:43;;;;;;;126.68;51.30;;;1.30;99.90;;;;;;5089769;28;20034;-43
2022/12/04 09:50:27;;;;;;;131.65;48.58;;;1.30;99.90;;;;;;5089101;28;20086;-42
2022/12/04 09:53:05;;;;;;;119.43;49.08;;;1.30;99.90;;;;;;5090266;28;20016;-44
2022/12/04 09:55:49;;;;;;;116.53;48.70;;;1.30;99.90;;;;;;5071668;28;20392;-43
2022/12/04 09:58:21;;;;;;;124.10;49.55;;;1.30;99.90;;;;;;5089857;28;20580;-43
2022/12/04 10:00:49;;;;;;;123.38;49.80;;;1.30;99.90;;;;;;5089255;28;20429;-43
2022/12/04 10:03:20;;;;;;;116.28;45.78;;;1.30;99.90;;;;;;5089300;28;20263;-43
2022/12/04 10:06:11;;;;;;;116.95;49.13;;;1.30;99.90;;;;;;5089321;28;20026;-43
2022/12/04 10:08:40;;;;;;;116.63;47.35;;;1.30;99.90;;;;;;5089397;28;20020;-42
2022/12/04 10:11:25;;;;;;;114.78;48.25;;;1.30;99.90;;;;;;5089038;28;20024;-43
2022/12/04 10:14:28;;;;;;;109.45;46.95;;;1.30;99.90;;;;;;5089563;28;20031;-44
2022/12/04 10:17:21;;;;;;;123.10;49.83;;;1.40;99.90;;;;;;5088474;28;20020;-44
2022/12/04 10:20:18;;;;;;;111.03;45.88;;;1.40;99.90;;;;;;5084965;28;20024;-42
2022/12/04 10:23:09;;;;;;;120.20;44.63;;;1.40;99.90;;;;;;5069350;28;20021;-43
2022/12/04 10:25:37;;;;;;;132.00;49.33;;;1.40;99.90;;;;;;5069310;28;20030;-43
2022/12/04 10:28:32;;;;;;;114.28;46.78;;;1.40;99.90;;;;;;5068485;28;20041;-43
2022/12/04 10:31:03;;;;;;;126.85;49.10;;;1.50;99.90;;;;;;5063224;28;20401;-43
2022/12/04 10:33:50;;;;;;;116.93;47.95;;;1.50;99.90;;;;;;5069064;28;20024;-44
2022/12/04 10:36:19;;;;;;;113.97;47.38;;;1.50;99.90;;;;;;5069031;28;20039;-48
2022/12/04 10:38:52;;;;;;;116.75;46.22;;;1.40;99.90;;;;;;5069115;28;20485;-43
2022/12/04 10:41:37;;;;;;;124.10;49.88;;;1.50;99.90;;;;;;5068913;28;20078;-44
2022/12/04 10:44:03;;;;;;;117.88;45.28;;;1.50;99.90;;;;;;5068769;28;20036;-43
2022/12/04 10:46:33;;;;;;;122.63;49.10;;;1.50;99.90;;;;;;5069039;28;20056;-45
2022/12/04 10:49:13;;;;;;;115.03;48.03;;;1.50;99.90;;;;;;5082111;28;20058;-46
2022/12/04 10:51:40;;;;;;;120.15;48.65;;;1.50;99.90;;;;;;5088939;28;20027;-47
2022/12/04 10:54:20;;;;;;;116.63;47.08;;;1.50;99.90;;;;;;5088611;28;20032;-43
2022/12/04 10:56:57;;;;;;;125.80;51.38;;;1.50;99.90;;;;;;5087737;28;20024;-43
2022/12/04 10:59:24;;;;;;;109.88;45.22;;;1.60;99.90;;;;;;5088314;28;20532;-44
2022/12/04 11:01:57;;;;;;;114.07;49.10;;;1.60;99.90;;;;;;5088907;28;20476;-43
2022/12/04 11:04:28;;;;;;;121.03;47.90;;;1.60;99.90;;;;;;5087113;28;20031;-45
2022/12/04 11:07:03;;;;;;;118.50;49.03;;;1.60;99.90;;;;;;5089131;28;20020;-44
2022/12/04 11:09:30;;;;;;;118.30;47.00;;;1.60;99.90;;;;;;5088452;28;20027;-44
2022/12/04 11:12:07;;;;;;;113.75;49.67;;;1.60;99.90;;;;;;5087547;28;20020;-44
2022/12/04 11:14:33;;;;;;;112.40;46.28;;;1.60;99.90;;;;;;5087515;28;20419;-45
2022/12/04 11:17:05;;;;;;;122.85;48.92;;;1.60;99.90;;;;;;5087591;28;20190;-45
2022/12/04 11:19:33;;;;;;;117.70;49.35;;;1.60;99.90;;;;;;5087923;28;20025;-45
2022/12/04 11:22:17;;;;;;;112.75;48.13;;;1.60;99.90;;;;;;5088112;28;20051;-44
2022/12/04 11:24:50;;;;;;;110.63;45.92;;;1.60;99.90;;;;;;5088513;28;20024;-44
2022/12/04 11:27:30;;;;;;;113.22;48.40;;;1.60;99.90;;;;;;5088500;28;20480;-43
2022/12/04 11:29:59;;;;;;;128.82;50.88;;;1.60;99.90;;;;;;5058774;28;20077;-43
2022/12/04 11:32:31;;;;;;;120.10;49.58;;;1.60;99.90;;;;;;5076304;28;20473;-44
2022/12/04 11:35:12;;;;;;;123.03;49.88;;;1.70;99.90;;;;;;5092891;28;20024;-43
2022/12/04 11:37:38;;;;;;;;;;;1.70;99.90;;;;;;5078716;28;20025;-43
2022/12/04 11:40:14;;;;;;;121.78;49.47;;;1.70;99.90;;;;;;5080258;28;19927;-44
2022/12/04 11:42:40;;;;;;;119.32;48.13;;;1.70;99.90;;;;;;5081768;28;20054;-43
2022/12/04 11:45:19;;;;;;;126.55;49.78;;;1.60;99.90;;;;;;5081097;28;20029;-47
2022/12/04 11:48:00;;;;;;;119.70;47.65;;;1.70;99.90;;;;;;5080813;28;20085;-43
2022/12/04 11:50:48;;;;;;;128.10;51.20;;;1.70;99.90;;;;;;5083603;28;20023;-44
2022/12/04 11:53:20;;;;;;;129.25;50.47;;;1.70;99.90;;;;;;5081988;28;20020;-44
2022/12/04 11:56:15;;;;;;;124.13;50.97;;;1.70;99.90;;;;;;5081516;28;20016;-44
2022/12/04 11:59:11;;;;;;;116.18;48.13;;;1.70;99.90;;;;;;5082795;28;20103;-47
2022/12/04 12:01:50;;;;;;;119.15;49.83;;;1.70;99.90;;;;;;5080965;28;20024;-44
2022/12/04 12:04:40;;;;;;;134.35;53.00;;;1.70;99.90;;;;;;5082144;28;20031;-43
2022/12/04 12:07:08;;;;;;;117.97;47.83;;;1.80;99.90;;;;;;5083396;28;20140;-44
2022/12/04 12:09:47;;;;;;;128.15;51.38;;;1.70;99.90;;;;;;5080729;28;20024;-44
2022/12/04 12:12:54;;;;;;;116.32;49.70;;;1.80;99.90;;;;;;5087963;28;20678;-44
2022/12/04 12:15:44;;;;;;;117.93;47.42;;;1.80;99.90;;;;;;5079972;28;20404;-43
2022/12/04 12:18:47;;;;;;;131.70;53.40;;;1.80;99.90;;;;;;5091666;28;20056;-44
2022/12/04 12:21:38;;;;;;;124.82;48.40;;;1.70;99.90;;;;;;5091358;28;20355;-44
2022/12/04 12:24:20;;;;;;;121.15;50.95;;;1.70;99.90;;;;;;5091893;28;20024;-43
2022/12/04 12:27:20;;;;;;;121.93;47.90;;;1.60;99.90;;;;;;5084572;28;20036;-43
2022/12/04 12:30:03;;;;;;;128.60;52.97;;;1.60;99.90;;;;;;5081235;28;20031;-44
2022/12/04 12:32:59;;;;;;;122.68;50.75;;;1.60;99.90;;;;;;5082582;28;20649;-44
2022/12/04 12:35:44;;;;;;;124.57;49.17;;;1.70;99.90;;;;;;5080104;28;20392;-43
2022/12/04 12:38:17;;;;;;;121.72;47.95;;;1.70;99.90;;;;;;5082027;28;20021;-43
2022/12/04 12:40:48;;;;;;;114.47;48.28;;;1.70;99.90;;;;;;5080408;28;20366;-43
2022/12/04 12:43:34;;;;;;;120.63;46.45;;;1.70;99.90;;;;;;5082000;28;20413;-44
2022/12/04 12:46:29;;;;;;;123.57;49.92;;;1.70;99.90;;;;;;5080489;28;20391;-43
2022/12/04 12:49:13;;;;;;;115.38;48.80;;;1.80;99.90;;;;;;5081117;28;20008;-44
2022/12/04 12:51:54;;;;;;;117.28;47.72;;;1.70;99.90;;;;;;5081889;28;20135;-43
2022/12/04 12:54:48;;;;;;;121.93;51.80;;;1.70;99.90;;;;;;5080339;28;20102;-43
2022/12/04 12:57:33;;;;;;;114.30;49.35;;;1.70;99.90;;;;;;5073577;28;20363;-43
2022/12/04 13:00:05;;;;;;;117.55;49.22;;;1.70;99.90;;;;;;5069148;28;20025;-43
2022/12/04 13:02:47;;;;;;;125.32;49.25;;;1.70;99.90;;;;;;5070742;28;20102;-43
2022/12/04 13:05:19;;;;;;;114.82;48.53;;;1.70;99.90;;;;;;5070587;28;20032;-42
2022/12/04 13:08:23;;;;;;;121.47;49.50;;;1.70;99.90;;;;;;5069463;28;20017;-44